createdAt,value
2018-12-14T00:01:00.253Z,8.30
2018-12-14T00:03:30.654Z,8.30
2018-12-14T00:05:59.219Z,8.40
2018-12-14T00:08:27.840Z,8.30
2018-12-14T00:10:56.408Z,8.30
2018-12-14T00:13:24.989Z,8.30
2018-12-14T00:15:53.561Z,8.30
2018-12-14T00:18:22.124Z,8.30
2018-12-14T00:20:50.706Z,8.30
2018-12-14T00:23:19.264Z,8.30
2018-12-14T00:25:47.829Z,8.30
2018-12-14T00:28:16.412Z,8.30
2018-12-14T00:30:44.969Z,8.30
2018-12-14T00:33:13.534Z,8.30
2018-12-14T00:35:42.376Z,8.30
2018-12-14T00:38:10.945Z,8.30
2018-12-14T00:40:39.545Z,8.30
2018-12-14T00:43:08.131Z,8.30
2018-12-14T00:45:36.709Z,8.30
2018-12-14T00:48:05.289Z,8.30
2018-12-14T00:50:33.844Z,8.30
2018-12-14T00:53:02.428Z,8.30
2018-12-14T00:55:31.024Z,8.30
2018-12-14T00:57:59.593Z,8.30
2018-12-14T01:00:28.173Z,8.30
2018-12-14T01:02:56.889Z,8.30
2018-12-14T01:05:25.455Z,8.30
2018-12-14T01:07:54.020Z,8.30
2018-12-14T01:10:22.636Z,8.30
2018-12-14T01:12:51.204Z,8.30
2018-12-14T01:15:20.304Z,8.30
2018-12-14T01:17:49.017Z,8.30
2018-12-14T01:20:17.608Z,8.30
2018-12-14T01:22:46.188Z,8.30
2018-12-14T01:25:14.765Z,8.30
2018-12-14T01:27:43.313Z,8.30
2018-12-14T01:30:11.932Z,8.30
2018-12-14T01:32:40.497Z,8.30
2018-12-14T01:35:09.074Z,8.30
2018-12-14T01:37:37.664Z,8.30
2018-12-14T01:40:07.044Z,8.30
2018-12-14T01:42:35.624Z,8.30
2018-12-14T01:45:04.964Z,8.30
2018-12-14T01:47:33.567Z,8.30
2018-12-14T01:50:02.151Z,8.30
2018-12-14T01:52:30.984Z,8.20
2018-12-14T01:54:59.604Z,8.30
2018-12-14T01:57:28.509Z,8.30
2018-12-14T01:59:57.200Z,8.30
2018-12-14T02:02:25.763Z,8.20
2018-12-14T02:04:54.349Z,8.30
2018-12-14T02:07:22.953Z,8.20
2018-12-14T02:09:51.508Z,8.30
2018-12-14T02:12:20.100Z,8.20
2018-12-14T02:14:48.684Z,8.30
2018-12-14T02:17:17.229Z,8.20
2018-12-14T02:19:45.947Z,8.20
2018-12-14T02:22:14.528Z,8.20
2018-12-14T02:24:43.147Z,8.20
2018-12-14T02:27:11.742Z,8.20
2018-12-14T02:29:40.313Z,8.20
2018-12-14T02:32:09.126Z,8.20
2018-12-14T02:34:37.958Z,8.20
2018-12-14T02:37:06.555Z,8.20
2018-12-14T02:39:35.246Z,8.20
2018-12-14T02:42:03.837Z,8.20
2018-12-14T02:44:32.412Z,8.20
2018-12-14T02:47:01.078Z,8.20
2018-12-14T02:49:29.666Z,8.20
2018-12-14T02:51:58.231Z,8.20
2018-12-14T02:54:26.811Z,8.20
2018-12-14T02:56:55.393Z,8.20
2018-12-14T02:59:23.952Z,8.20
2018-12-14T03:01:52.537Z,8.20
2018-12-14T03:04:21.179Z,8.20
2018-12-14T03:06:49.743Z,8.20
2018-12-14T03:09:18.837Z,8.20
2018-12-14T03:11:51.767Z,8.20
2018-12-14T03:14:20.588Z,8.20
2018-12-14T03:16:49.488Z,8.20
2018-12-14T03:19:18.069Z,8.20
2018-12-14T03:21:46.632Z,8.20
2018-12-14T03:24:15.237Z,8.20
2018-12-14T03:26:43.934Z,8.20
2018-12-14T03:29:12.603Z,8.20
2018-12-14T03:31:41.173Z,8.20
2018-12-14T03:34:09.757Z,8.20
2018-12-14T03:36:38.360Z,8.20
2018-12-14T03:39:07.285Z,8.20
2018-12-14T03:41:35.861Z,8.20
2018-12-14T03:44:04.444Z,8.20
2018-12-14T03:46:33.051Z,8.20
2018-12-14T03:49:01.621Z,8.20
2018-12-14T03:51:30.231Z,8.20
2018-12-14T03:53:58.925Z,8.20
2018-12-14T03:56:27.478Z,8.20
2018-12-14T03:58:56.068Z,8.20
2018-12-14T04:01:24.611Z,8.10
2018-12-14T04:03:53.211Z,8.20
2018-12-14T04:06:21.808Z,8.20
2018-12-14T04:08:50.360Z,8.20
2018-12-14T04:11:18.940Z,8.20
2018-12-14T04:13:47.548Z,8.20
2018-12-14T04:16:16.108Z,8.20
2018-12-14T04:18:44.680Z,8.20
2018-12-14T04:21:13.252Z,8.20
2018-12-14T04:23:41.816Z,8.20
2018-12-14T04:26:10.374Z,8.20
2018-12-14T04:28:38.981Z,8.10
2018-12-14T04:31:07.546Z,8.20
2018-12-14T04:33:36.335Z,8.10
2018-12-14T04:36:04.927Z,8.20
2018-12-14T04:38:33.491Z,8.20
2018-12-14T04:41:02.173Z,8.10
2018-12-14T04:43:30.848Z,8.20
2018-12-14T04:45:59.400Z,8.20
2018-12-14T04:48:28.048Z,8.20
2018-12-14T04:50:56.601Z,8.20
2018-12-14T04:53:25.176Z,8.20
2018-12-14T04:55:53.774Z,8.20
2018-12-14T04:58:22.332Z,8.20
2018-12-14T05:00:50.901Z,8.20
2018-12-14T05:03:19.496Z,8.10
2018-12-14T05:05:48.059Z,8.20
2018-12-14T05:08:16.618Z,8.10
2018-12-14T05:10:45.209Z,8.10
2018-12-14T05:13:13.800Z,8.10
2018-12-14T05:15:42.410Z,8.10
2018-12-14T05:18:10.964Z,8.10
2018-12-14T05:20:39.545Z,8.20
2018-12-14T05:23:08.118Z,8.10
2018-12-14T05:25:36.701Z,8.10
2018-12-14T05:28:05.296Z,8.10
2018-12-14T05:30:33.859Z,8.20
2018-12-14T05:33:02.432Z,8.10
2018-12-14T05:35:31.016Z,8.10
2018-12-14T05:37:59.569Z,8.10
2018-12-14T05:40:28.144Z,8.10
2018-12-14T05:43:02.363Z,8.10
2018-12-14T05:45:27.284Z,8.10
2018-12-14T05:47:55.958Z,8.10
2018-12-14T05:50:24.523Z,8.10
2018-12-14T05:52:53.121Z,8.10
2018-12-14T05:55:21.710Z,8.10
2018-12-14T05:57:50.269Z,8.10
2018-12-14T06:00:18.980Z,8.10
2018-12-14T06:02:47.561Z,8.10
2018-12-14T06:05:16.128Z,8.10
2018-12-14T06:07:44.688Z,8.10
2018-12-14T06:10:13.203Z,8.10
2018-12-14T06:12:42.213Z,8.10
2018-12-14T06:15:10.805Z,8.10
2018-12-14T06:17:39.357Z,8.10
2018-12-14T06:20:08.412Z,8.10
2018-12-14T06:22:37.037Z,8.10
2018-12-14T06:25:06.461Z,8.10
2018-12-14T06:27:35.025Z,8.10
2018-12-14T06:30:03.997Z,8.10
2018-12-14T06:32:32.557Z,8.10
2018-12-14T06:35:01.157Z,8.10
2018-12-14T06:37:29.854Z,8.10
2018-12-14T06:39:58.415Z,8.10
2018-12-14T06:42:28.834Z,8.10
2018-12-14T06:44:57.797Z,8.10
2018-12-14T06:47:27.636Z,8.10
2018-12-14T06:49:56.232Z,8.10
2018-12-14T06:52:24.807Z,8.10
2018-12-14T06:54:53.388Z,8.10
2018-12-14T06:57:21.953Z,8.10
2018-12-14T06:59:50.544Z,8.10
2018-12-14T07:02:19.120Z,8.10
2018-12-14T07:04:47.672Z,8.10
2018-12-14T07:07:16.236Z,8.10
2018-12-14T07:09:44.808Z,8.10
2018-12-14T07:12:13.382Z,8.00
2018-12-14T07:14:41.988Z,8.00
2018-12-14T07:17:10.545Z,8.00
2018-12-14T07:19:39.099Z,8.00
2018-12-14T07:22:07.677Z,8.00
2018-12-14T07:24:36.249Z,8.00
2018-12-14T07:27:04.948Z,8.00
2018-12-14T07:29:33.513Z,8.00
2018-12-14T07:32:02.409Z,8.00
2018-12-14T07:34:30.974Z,8.00
2018-12-14T07:36:59.528Z,8.00
2018-12-14T07:39:28.116Z,8.00
2018-12-14T07:41:56.695Z,8.00
2018-12-14T07:44:25.311Z,8.00
2018-12-14T07:46:53.944Z,8.00
2018-12-14T07:49:22.573Z,8.00
2018-12-14T07:51:51.136Z,8.00
2018-12-14T07:54:20.048Z,8.00
2018-12-14T07:56:48.637Z,8.00
2018-12-14T07:59:17.538Z,7.90
2018-12-14T08:01:46.110Z,7.90
2018-12-14T08:04:14.767Z,8.00
2018-12-14T08:06:43.357Z,7.90
2018-12-14T08:09:11.925Z,7.90
2018-12-14T08:11:40.497Z,7.90
2018-12-14T08:14:09.119Z,7.90
2018-12-14T08:16:37.701Z,7.90
2018-12-14T08:19:06.439Z,7.90
2018-12-14T08:21:35.159Z,7.90
2018-12-14T08:24:03.724Z,7.90
2018-12-14T08:26:32.413Z,8.00
2018-12-14T08:29:01.026Z,7.90
2018-12-14T08:31:29.585Z,7.90
2018-12-14T08:33:58.147Z,7.90
2018-12-14T08:36:26.760Z,8.00
2018-12-14T08:38:55.327Z,8.00
2018-12-14T08:41:23.909Z,8.00
2018-12-14T08:43:52.498Z,8.00
2018-12-14T08:46:21.093Z,8.00
2018-12-14T08:48:49.665Z,8.00
2018-12-14T08:51:18.457Z,8.00
2018-12-14T08:53:47.066Z,8.00
2018-12-14T08:56:15.621Z,8.00
2018-12-14T08:58:44.209Z,8.00
2018-12-14T09:01:12.807Z,8.00
2018-12-14T09:03:41.392Z,8.00
2018-12-14T09:06:09.978Z,8.00
2018-12-14T09:08:38.540Z,8.00
2018-12-14T09:11:07.136Z,8.00
2018-12-14T09:13:35.708Z,8.00
2018-12-14T09:16:04.322Z,8.00
2018-12-14T09:18:32.918Z,8.00
2018-12-14T09:21:01.521Z,8.00
2018-12-14T09:23:30.089Z,8.00
2018-12-14T09:25:58.672Z,8.00
2018-12-14T09:28:27.227Z,8.00
2018-12-14T09:30:55.880Z,8.10
2018-12-14T09:33:24.446Z,8.10
2018-12-14T09:35:53.059Z,8.10
2018-12-14T09:38:21.628Z,8.10
2018-12-14T09:40:50.198Z,8.10
2018-12-14T09:43:18.764Z,8.10
2018-12-14T09:45:47.353Z,8.10
2018-12-14T09:48:15.888Z,8.10
2018-12-14T09:50:44.443Z,8.10
2018-12-14T09:53:14.185Z,8.10
2018-12-14T09:55:42.748Z,8.10
2018-12-14T09:58:11.262Z,8.10
2018-12-14T10:00:39.884Z,8.10
2018-12-14T10:03:08.434Z,8.10
2018-12-14T10:05:37.017Z,8.10
2018-12-14T10:08:05.618Z,8.10
2018-12-14T10:10:34.589Z,8.20
2018-12-14T10:13:03.109Z,8.20
2018-12-14T10:15:31.717Z,8.20
2018-12-14T10:18:00.545Z,8.20
2018-12-14T10:20:29.113Z,8.20
2018-12-14T10:22:57.704Z,8.20
2018-12-14T10:25:26.290Z,8.20
2018-12-14T10:28:06.267Z,8.20
2018-12-14T10:30:35.198Z,8.20
2018-12-14T10:33:03.784Z,8.20
2018-12-14T10:35:32.373Z,8.30
2018-12-14T10:38:00.931Z,8.30
2018-12-14T10:40:29.495Z,8.30
2018-12-14T10:42:58.078Z,8.30
2018-12-14T10:45:28.023Z,8.30
2018-12-14T10:47:56.636Z,8.30
2018-12-14T10:50:25.202Z,8.30
2018-12-14T10:52:53.796Z,8.30
2018-12-14T10:55:22.413Z,8.30
2018-12-14T10:57:51.320Z,8.30
2018-12-14T11:00:25.261Z,8.30
2018-12-14T11:02:53.844Z,8.30
2018-12-14T11:05:22.411Z,8.30
2018-12-14T11:07:51.001Z,8.40
2018-12-14T11:10:19.570Z,8.40
2018-12-14T11:12:48.138Z,8.40
2018-12-14T11:15:16.735Z,8.40
2018-12-14T11:17:45.297Z,8.40
2018-12-14T11:20:13.888Z,8.40
2018-12-14T11:22:42.460Z,8.40
2018-12-14T11:25:11.111Z,8.50
2018-12-14T11:27:39.676Z,8.50
2018-12-14T11:30:10.024Z,8.50
2018-12-14T11:32:38.616Z,8.50
2018-12-14T11:35:07.235Z,8.50
2018-12-14T11:37:35.828Z,8.50
2018-12-14T11:40:05.375Z,8.60
2018-12-14T11:42:33.947Z,8.60
2018-12-14T11:45:02.542Z,8.60
2018-12-14T11:47:31.123Z,8.60
2018-12-14T11:49:59.810Z,8.60
2018-12-14T11:52:28.382Z,8.70
2018-12-14T11:54:56.970Z,8.70
2018-12-14T11:57:25.536Z,8.70
2018-12-14T11:59:54.100Z,8.70
2018-12-14T12:02:22.677Z,8.80
2018-12-14T12:04:51.241Z,8.80
2018-12-14T12:07:19.840Z,8.80
2018-12-14T12:09:48.414Z,8.80
2018-12-14T12:12:16.996Z,8.90
2018-12-14T12:14:45.640Z,8.90
2018-12-14T12:17:14.209Z,8.90
2018-12-14T12:19:42.789Z,8.90
2018-12-14T12:22:11.376Z,8.90
2018-12-14T12:24:39.933Z,9.00
2018-12-14T12:27:08.523Z,9.00
2018-12-14T12:29:37.097Z,9.00
2018-12-14T12:32:05.661Z,9.00
2018-12-14T12:34:34.257Z,9.00
2018-12-14T12:37:02.860Z,9.00
2018-12-14T12:39:31.424Z,9.00
2018-12-14T12:42:00.009Z,9.00
2018-12-14T12:44:33.542Z,9.10
2018-12-14T12:46:59.233Z,9.00
2018-12-14T12:49:27.804Z,9.00
2018-12-14T12:51:56.399Z,9.10
2018-12-14T12:54:24.996Z,9.10
2018-12-14T12:56:53.630Z,9.10
2018-12-14T12:59:24.109Z,9.10
2018-12-14T13:01:52.989Z,9.10
2018-12-14T13:04:21.585Z,9.10
2018-12-14T13:06:50.152Z,9.20
2018-12-14T13:09:18.745Z,9.20
2018-12-14T13:11:47.365Z,9.20
2018-12-14T13:14:16.041Z,9.20
2018-12-14T13:16:44.619Z,9.20
2018-12-14T13:19:13.500Z,9.20
2018-12-14T13:21:42.120Z,9.30
2018-12-14T13:24:10.692Z,9.30
2018-12-14T13:26:39.264Z,9.40
2018-12-14T13:29:08.185Z,9.40
2018-12-14T13:31:36.753Z,9.50
2018-12-14T13:34:05.480Z,9.50
2018-12-14T13:36:34.081Z,9.60
2018-12-14T13:39:02.782Z,9.60
2018-12-14T13:41:31.393Z,9.60
2018-12-14T13:44:00.072Z,9.70
2018-12-14T13:46:28.684Z,9.70
2018-12-14T13:49:02.823Z,9.80
2018-12-14T13:51:27.896Z,9.80
2018-12-14T13:53:56.481Z,9.80
2018-12-14T13:56:25.052Z,9.80
2018-12-14T13:58:53.633Z,9.90
2018-12-14T14:01:22.240Z,9.90
2018-12-14T14:03:50.801Z,9.90
2018-12-14T14:06:20.464Z,9.90
2018-12-14T14:08:49.059Z,10.00
2018-12-14T14:11:17.642Z,10.00
2018-12-14T14:13:46.367Z,10.00
2018-12-14T14:16:14.963Z,10.00
2018-12-14T14:18:43.553Z,10.00
2018-12-14T14:21:12.528Z,10.00
2018-12-14T14:23:41.100Z,10.00
2018-12-14T14:26:09.677Z,10.00
2018-12-14T14:28:38.266Z,10.00
2018-12-14T14:31:06.861Z,10.00
2018-12-14T14:33:35.477Z,10.00
2018-12-14T14:36:04.045Z,10.00
2018-12-14T14:38:32.673Z,10.00
2018-12-14T14:41:01.276Z,10.00
2018-12-14T14:43:29.861Z,9.90
2018-12-14T14:45:58.460Z,10.00
2018-12-14T14:48:27.069Z,9.90
2018-12-14T14:50:55.680Z,9.90
2018-12-14T14:53:24.252Z,9.90
2018-12-14T14:55:52.824Z,9.90
2018-12-14T14:58:21.392Z,9.90
2018-12-14T15:00:49.981Z,9.90
2018-12-14T15:03:18.824Z,9.90
2018-12-14T15:05:47.420Z,9.90
2018-12-14T15:08:15.996Z,9.80
2018-12-14T15:10:44.580Z,9.80
2018-12-14T15:13:13.164Z,9.80
2018-12-14T15:15:41.754Z,9.80
2018-12-14T15:18:10.336Z,9.80
2018-12-14T15:20:38.905Z,9.80
2018-12-14T15:23:07.480Z,9.80
2018-12-14T15:25:36.048Z,9.70
2018-12-14T15:28:04.669Z,9.70
2018-12-14T15:30:33.244Z,9.70
2018-12-14T15:33:01.816Z,9.70
2018-12-14T15:35:30.440Z,9.70
2018-12-14T15:37:59.001Z,9.60
2018-12-14T15:40:27.581Z,9.60
2018-12-14T15:42:56.317Z,9.60
2018-12-14T15:45:24.916Z,9.60
2018-12-14T15:47:53.504Z,9.50
2018-12-14T15:50:22.116Z,9.50
2018-12-14T15:52:50.782Z,9.50
2018-12-14T15:55:19.348Z,9.50
2018-12-14T15:57:47.952Z,9.50
2018-12-14T16:00:16.677Z,9.50
2018-12-14T16:02:45.371Z,9.40
2018-12-14T16:05:14.120Z,9.40
2018-12-14T16:07:42.674Z,9.40
2018-12-14T16:10:11.265Z,9.30
2018-12-14T16:12:39.866Z,9.30
2018-12-14T16:15:08.969Z,9.30
2018-12-14T16:17:37.820Z,9.20
2018-12-14T16:20:08.281Z,9.20
2018-12-14T16:22:37.008Z,9.20
2018-12-14T16:25:06.364Z,9.20
2018-12-14T16:27:35.042Z,9.10
2018-12-14T16:30:04.101Z,9.20
2018-12-14T16:32:32.659Z,9.10
2018-12-14T16:35:01.325Z,9.10
2018-12-14T16:37:29.908Z,9.10
2018-12-14T16:39:58.489Z,9.00
2018-12-14T16:42:27.059Z,9.00
2018-12-14T16:44:55.923Z,9.00
2018-12-14T16:47:24.492Z,9.00
2018-12-14T16:49:53.053Z,8.90
2018-12-14T16:52:21.640Z,8.90
2018-12-14T16:54:50.353Z,8.90
2018-12-14T16:57:18.971Z,8.90
2018-12-14T16:59:47.549Z,8.90
2018-12-14T17:02:16.272Z,8.80
2018-12-14T17:04:44.880Z,8.80
2018-12-14T17:07:13.452Z,8.80
2018-12-14T17:09:42.183Z,8.80
2018-12-14T17:12:10.872Z,8.80
2018-12-14T17:14:39.452Z,8.70
2018-12-14T17:17:08.069Z,8.70
2018-12-14T17:19:36.637Z,8.70
2018-12-14T17:22:05.222Z,8.70
2018-12-14T17:24:33.791Z,8.60
2018-12-14T17:27:02.372Z,8.60
2018-12-14T17:29:31.096Z,8.60
2018-12-14T17:31:59.738Z,8.60
2018-12-14T17:34:28.309Z,8.60
2018-12-14T17:36:56.925Z,8.50
2018-12-14T17:39:25.664Z,8.50
2018-12-14T17:41:54.328Z,8.50
2018-12-14T17:44:22.969Z,8.50
2018-12-14T17:46:51.694Z,8.50
2018-12-14T17:49:20.285Z,8.40
2018-12-14T17:51:49.121Z,8.40
2018-12-14T17:54:17.741Z,8.40
2018-12-14T17:56:46.318Z,8.40
2018-12-14T17:59:14.908Z,8.40
2018-12-14T18:01:43.988Z,8.30
2018-12-14T18:04:12.557Z,8.30
2018-12-14T18:06:41.176Z,8.30
2018-12-14T18:09:09.741Z,8.30
2018-12-14T18:11:38.316Z,8.30
2018-12-14T18:14:06.894Z,8.20
2018-12-14T18:16:35.501Z,8.20
2018-12-14T18:19:04.149Z,8.20
2018-12-14T18:21:32.748Z,8.20
2018-12-14T18:24:01.320Z,8.20
2018-12-14T18:26:29.899Z,8.10
2018-12-14T18:28:58.492Z,8.10
2018-12-14T18:31:27.063Z,8.10
2018-12-14T18:33:55.636Z,8.10
2018-12-14T18:36:24.246Z,8.10
2018-12-14T18:38:52.828Z,8.10
2018-12-14T18:41:21.439Z,8.00
2018-12-14T18:43:50.021Z,8.00
2018-12-14T18:46:18.627Z,8.00
2018-12-14T18:48:47.354Z,8.00
2018-12-14T18:51:15.926Z,8.00
2018-12-14T18:53:48.716Z,7.90
2018-12-14T18:56:17.274Z,7.90
2018-12-14T18:58:45.860Z,7.90
2018-12-14T19:01:14.460Z,7.90
2018-12-14T19:03:43.046Z,7.80
2018-12-14T19:06:11.792Z,7.80
2018-12-14T19:08:40.485Z,7.80
2018-12-14T19:11:09.080Z,7.80
2018-12-14T19:13:37.701Z,7.80
2018-12-14T19:16:06.263Z,7.80
2018-12-14T19:18:35.221Z,7.70
2018-12-14T19:21:03.896Z,7.70
2018-12-14T19:23:32.481Z,7.70
2018-12-14T19:26:01.060Z,7.70
2018-12-14T19:28:29.608Z,7.70
2018-12-14T19:30:58.160Z,7.70
2018-12-14T19:33:26.760Z,7.60
2018-12-14T19:35:55.334Z,7.60
2018-12-14T19:38:23.894Z,7.60
2018-12-14T19:40:52.715Z,7.60
2018-12-14T19:43:21.275Z,7.60
2018-12-14T19:45:49.824Z,7.60
2018-12-14T19:48:18.420Z,7.50
2018-12-14T19:50:46.977Z,7.50
2018-12-14T19:53:15.537Z,7.50
2018-12-14T19:55:44.106Z,7.50
2018-12-14T19:58:12.664Z,7.50
2018-12-14T20:00:41.252Z,7.40
2018-12-14T20:03:09.824Z,7.40
2018-12-14T20:05:41.416Z,7.40
2018-12-14T20:08:10.445Z,7.40
2018-12-14T20:10:39.013Z,7.40
2018-12-14T20:13:07.704Z,7.40
2018-12-14T20:15:36.385Z,7.30
2018-12-14T20:18:04.990Z,7.30
2018-12-14T20:20:33.578Z,7.30
2018-12-14T20:23:02.160Z,7.30
2018-12-14T20:25:30.711Z,7.30
2018-12-14T20:27:59.292Z,7.30
2018-12-14T20:30:27.885Z,7.20
2018-12-14T20:32:56.445Z,7.20
2018-12-14T20:35:25.172Z,7.20
2018-12-14T20:37:54.108Z,7.20
2018-12-14T20:40:22.672Z,7.20
2018-12-14T20:42:51.229Z,7.20
2018-12-14T20:45:19.832Z,7.10
2018-12-14T20:47:48.389Z,7.10
2018-12-14T20:50:16.969Z,7.10
2018-12-14T20:52:45.542Z,7.10
2018-12-14T20:55:14.108Z,7.10
2018-12-14T20:57:42.687Z,7.10
2018-12-14T21:00:13.032Z,7.00
2018-12-14T21:02:41.676Z,7.00
2018-12-14T21:05:10.782Z,7.00
2018-12-14T21:07:39.361Z,7.00
2018-12-14T21:10:08.624Z,7.00
2018-12-14T21:12:37.537Z,7.00
2018-12-14T21:15:07.445Z,7.00
2018-12-14T21:17:36.065Z,6.90
2018-12-14T21:20:05.364Z,6.90
2018-12-14T21:22:33.924Z,6.90
2018-12-14T21:25:02.496Z,6.90
2018-12-14T21:27:31.085Z,6.90
2018-12-14T21:29:59.703Z,6.80
2018-12-14T21:32:28.260Z,6.80
2018-12-14T21:34:56.808Z,6.80
2018-12-14T21:37:25.376Z,6.80
2018-12-14T21:39:53.954Z,6.80
2018-12-14T21:42:23.990Z,6.80
2018-12-14T21:44:52.565Z,6.80
2018-12-14T21:47:21.133Z,6.80
2018-12-14T21:49:49.713Z,6.70
2018-12-14T21:52:18.281Z,6.70
2018-12-14T21:54:46.850Z,6.70
2018-12-14T21:57:15.437Z,6.70
2018-12-14T21:59:43.959Z,6.70
2018-12-14T22:02:12.680Z,6.70
2018-12-14T22:04:41.495Z,6.70
2018-12-14T22:07:10.059Z,6.60
2018-12-14T22:09:38.635Z,6.60
2018-12-14T22:12:07.212Z,6.60
2018-12-14T22:14:35.800Z,6.60
2018-12-14T22:17:04.360Z,6.60
2018-12-14T22:19:32.973Z,6.60
2018-12-14T22:22:01.882Z,6.50
2018-12-14T22:24:30.469Z,6.50
2018-12-14T22:26:59.041Z,6.50
2018-12-14T22:29:27.605Z,6.50
2018-12-14T22:31:56.211Z,6.50
2018-12-14T22:34:24.772Z,6.50
2018-12-14T22:36:53.356Z,6.50
2018-12-14T22:39:22.376Z,6.50
2018-12-14T22:41:51.064Z,6.50
2018-12-14T22:44:21.591Z,6.50
2018-12-14T22:46:50.233Z,6.50
2018-12-14T22:49:18.785Z,6.40
2018-12-14T22:51:47.388Z,6.40
2018-12-14T22:54:15.948Z,6.40
2018-12-14T22:56:44.524Z,6.40
2018-12-14T22:59:13.501Z,6.40
2018-12-14T23:01:42.088Z,6.40
2018-12-14T23:04:10.693Z,6.40
2018-12-14T23:06:39.304Z,6.30
2018-12-14T23:09:07.985Z,6.40
2018-12-14T23:11:36.820Z,6.30
2018-12-14T23:14:05.460Z,6.30
2018-12-14T23:16:34.061Z,6.30
2018-12-14T23:19:02.616Z,6.30
2018-12-14T23:21:31.236Z,6.30
2018-12-14T23:23:59.804Z,6.30
2018-12-14T23:26:28.419Z,6.30
2018-12-14T23:28:56.980Z,6.20
2018-12-14T23:31:25.543Z,6.30
2018-12-14T23:33:54.137Z,6.20
2018-12-14T23:36:23.305Z,6.20
2018-12-14T23:38:51.861Z,6.20
2018-12-14T23:41:20.463Z,6.20
2018-12-14T23:43:49.020Z,6.20
2018-12-14T23:46:17.601Z,6.20
2018-12-14T23:48:46.185Z,6.20
2018-12-14T23:51:14.744Z,6.20
2018-12-14T23:53:43.333Z,6.10
2018-12-14T23:56:11.881Z,6.10
2018-12-14T23:58:40.440Z,6.10
